createdAt,value
2022-09-06T00:02:58.752Z,70.58
2022-09-06T00:05:51.132Z,70.54
2022-09-06T00:08:44.021Z,70.61
2022-09-06T00:11:36.060Z,71.00
2022-09-06T00:14:28.150Z,71.34
2022-09-06T00:17:18.791Z,71.42
2022-09-06T00:20:12.203Z,71.71
2022-09-06T00:23:06.761Z,71.80
2022-09-06T00:26:06.005Z,72.09
2022-09-06T00:28:58.294Z,72.30
2022-09-06T00:31:50.333Z,72.47
2022-09-06T00:34:42.331Z,72.30
2022-09-06T00:37:34.344Z,72.44
2022-09-06T00:40:26.335Z,72.43
2022-09-06T00:43:19.506Z,72.48
2022-09-06T00:46:15.556Z,72.71
2022-09-06T00:49:12.247Z,73.36
2022-09-06T00:52:07.259Z,73.50
2022-09-06T00:54:59.759Z,74.04
2022-09-06T00:57:55.778Z,74.12
2022-09-06T01:00:47.878Z,73.97
2022-09-06T01:03:40.249Z,74.13
2022-09-06T01:06:45.973Z,73.88
2022-09-06T01:09:57.427Z,73.81
2022-09-06T01:12:58.655Z,73.83
2022-09-06T01:15:59.328Z,74.16
2022-09-06T01:19:06.141Z,74.48
2022-09-06T01:22:08.464Z,74.69
2022-09-06T01:25:14.471Z,74.78
2022-09-06T01:28:30.642Z,75.09
2022-09-06T01:31:33.310Z,75.27
2022-09-06T01:34:30.662Z,75.26
2022-09-06T01:37:24.601Z,75.57
2022-09-06T01:40:16.796Z,75.49
2022-09-06T01:43:13.000Z,75.50
2022-09-06T01:46:02.949Z,75.73
2022-09-06T01:49:19.407Z,75.77
2022-09-06T01:52:19.379Z,75.81
2022-09-06T01:55:23.401Z,75.88
2022-09-06T01:58:31.826Z,76.01
2022-09-06T02:01:29.780Z,75.99
2022-09-06T02:04:26.735Z,76.05
2022-09-06T02:07:23.762Z,76.17
2022-09-06T02:10:21.264Z,76.49
2022-09-06T02:13:15.300Z,76.36
2022-09-06T02:16:09.302Z,76.14
2022-09-06T02:19:07.967Z,75.98
2022-09-06T02:22:03.125Z,76.05
2022-09-06T02:24:57.672Z,75.96
2022-09-06T02:27:49.834Z,76.12
2022-09-06T02:30:46.922Z,76.34
2022-09-06T02:33:39.506Z,76.40
2022-09-06T02:36:33.195Z,76.44
2022-09-06T02:39:25.999Z,76.42
2022-09-06T02:42:19.874Z,76.48
2022-09-06T02:45:13.297Z,76.55
2022-09-06T02:48:06.256Z,76.47
2022-09-06T02:51:05.534Z,76.53
2022-09-06T02:53:58.283Z,76.61
2022-09-06T02:56:52.479Z,76.98
2022-09-06T02:59:46.331Z,76.99
2022-09-06T03:02:38.657Z,77.00
2022-09-06T03:05:31.276Z,76.90
2022-09-06T03:08:26.725Z,77.14
2022-09-06T03:11:19.015Z,77.25
2022-09-06T03:14:12.242Z,77.37
2022-09-06T03:17:04.930Z,77.61
2022-09-06T03:19:57.459Z,77.42
2022-09-06T03:22:49.852Z,77.44
2022-09-06T03:25:43.213Z,77.55
2022-09-06T03:28:35.745Z,77.56
2022-09-06T03:31:28.034Z,77.62
2022-09-06T03:34:20.295Z,77.98
2022-09-06T03:37:12.706Z,78.19
2022-09-06T03:40:06.449Z,78.09
2022-09-06T03:42:58.883Z,78.20
2022-09-06T03:45:46.114Z,78.24
2022-09-06T03:48:38.315Z,78.29
2022-09-06T03:51:29.070Z,78.31
2022-09-06T03:54:21.486Z,78.31
2022-09-06T03:57:12.681Z,78.32
2022-09-06T04:00:07.037Z,78.23
2022-09-06T04:03:01.720Z,78.47
2022-09-06T04:05:54.483Z,78.62
2022-09-06T04:08:46.787Z,78.42
2022-09-06T04:11:39.252Z,78.71
2022-09-06T04:14:31.606Z,78.77
2022-09-06T04:17:23.934Z,78.77
2022-09-06T04:20:17.504Z,78.87
2022-09-06T04:23:10.033Z,79.17
2022-09-06T04:26:02.739Z,79.05
2022-09-06T04:28:55.252Z,78.99
2022-09-06T04:31:47.658Z,79.04
2022-09-06T04:34:40.157Z,79.06
2022-09-06T04:37:32.326Z,79.14
2022-09-06T04:40:26.335Z,79.03
2022-09-06T04:43:18.935Z,78.90
2022-09-06T04:46:17.237Z,79.05
2022-09-06T04:49:09.493Z,79.11
2022-09-06T04:52:01.604Z,79.06
2022-09-06T04:54:53.970Z,79.05
2022-09-06T04:57:50.693Z,79.22
2022-09-06T05:00:44.888Z,79.45
2022-09-06T05:03:37.433Z,79.75
2022-09-06T05:06:29.660Z,79.77
2022-09-06T05:09:22.122Z,79.60
2022-09-06T05:11:54.014Z,79.52
2022-09-06T05:14:46.279Z,79.33
2022-09-06T05:17:38.796Z,79.23
2022-09-06T05:20:31.151Z,79.15
2022-09-06T05:23:23.837Z,79.02
2022-09-06T05:26:16.086Z,78.92
2022-09-06T05:29:08.504Z,78.65
2022-09-06T05:32:00.856Z,78.64
2022-09-06T05:34:53.514Z,78.63
2022-09-06T05:37:45.955Z,78.69
2022-09-06T05:40:38.081Z,78.56
2022-09-06T05:43:30.501Z,78.38
2022-09-06T05:46:23.677Z,78.41
2022-09-06T05:49:15.999Z,78.30
2022-09-06T05:52:08.426Z,78.05
2022-09-06T05:55:00.615Z,77.47
2022-09-06T05:57:42.903Z,76.52
2022-09-06T06:00:35.467Z,76.17
2022-09-06T06:03:27.850Z,75.81
2022-09-06T06:06:20.502Z,75.27
2022-09-06T06:09:12.855Z,74.57
2022-09-06T06:12:05.503Z,73.85
2022-09-06T06:14:57.799Z,73.23
2022-09-06T06:17:50.098Z,72.42
2022-09-06T06:20:42.345Z,72.20
2022-09-06T06:23:34.661Z,71.61
2022-09-06T06:26:27.877Z,70.79
2022-09-06T06:29:12.505Z,69.58
2022-09-06T06:32:05.119Z,69.23
2022-09-06T06:34:57.534Z,67.75
2022-09-06T06:37:49.794Z,67.61
2022-09-06T06:40:46.295Z,67.59
2022-09-06T06:43:38.912Z,67.51
2022-09-06T06:46:31.652Z,66.50
2022-09-06T06:49:23.604Z,65.86
2022-09-06T06:52:15.910Z,65.95
2022-09-06T06:55:08.684Z,65.41
2022-09-06T06:58:01.995Z,64.75
2022-09-06T07:00:54.557Z,63.58
2022-09-06T07:03:45.462Z,63.02
2022-09-06T07:12:55.637Z,61.24
2022-09-06T07:15:47.816Z,61.11
2022-09-06T07:18:42.267Z,60.01
2022-09-06T07:24:30.421Z,59.67
2022-09-06T07:30:37.428Z,58.83
2022-09-06T07:33:30.428Z,58.00
2022-09-06T07:36:22.538Z,56.57
2022-09-06T07:39:15.718Z,56.06
2022-09-06T07:42:08.786Z,56.55
2022-09-06T07:45:01.178Z,56.21
2022-09-06T07:47:59.278Z,55.23
2022-09-06T07:50:53.536Z,53.93
2022-09-06T07:53:57.986Z,52.94
2022-09-06T07:56:59.789Z,52.94
2022-09-06T07:59:52.282Z,52.80
2022-09-06T08:02:44.541Z,51.34
2022-09-06T08:11:48.932Z,50.30
2022-09-06T08:14:41.372Z,50.51
2022-09-06T08:17:36.060Z,48.90
2022-09-06T08:20:28.389Z,47.89
2022-09-06T08:23:20.666Z,48.23
2022-09-06T08:26:13.651Z,49.37
2022-09-06T08:29:09.170Z,47.84
2022-09-06T08:32:01.403Z,46.99
2022-09-06T08:34:53.637Z,46.71
2022-09-06T08:37:45.774Z,46.43
2022-09-06T08:40:39.615Z,46.06
2022-09-06T08:43:32.047Z,45.76
2022-09-06T08:46:28.680Z,46.88
2022-09-06T08:49:21.302Z,46.20
2022-09-06T08:52:28.748Z,44.02
2022-09-06T08:55:27.122Z,43.87
2022-09-06T08:58:41.443Z,43.61
2022-09-06T09:01:44.005Z,42.17
2022-09-06T09:04:40.373Z,40.61
2022-09-06T09:07:44.406Z,40.37
2022-09-06T09:10:42.637Z,40.79
2022-09-06T09:13:40.054Z,41.54
2022-09-06T09:16:32.628Z,40.75
2022-09-06T09:19:24.826Z,40.85
2022-09-06T09:22:20.587Z,40.82
2022-09-06T09:25:19.041Z,40.62
2022-09-06T09:28:17.896Z,40.76
2022-09-06T09:31:10.306Z,40.16
2022-09-06T09:33:53.890Z,38.74
2022-09-06T09:40:00.873Z,40.12
2022-09-06T09:42:53.973Z,38.84
2022-09-06T09:45:31.735Z,39.05
2022-09-06T09:48:28.406Z,37.86
2022-09-06T09:51:26.212Z,38.37
2022-09-06T09:54:00.960Z,38.12
2022-09-06T09:56:48.693Z,38.73
2022-09-06T09:59:39.179Z,37.93
2022-09-06T10:02:25.780Z,38.52
2022-09-06T10:05:07.156Z,37.92
2022-09-06T10:08:00.699Z,37.69
2022-09-06T10:10:52.960Z,37.09
2022-09-06T10:13:45.147Z,36.94
2022-09-06T10:16:46.107Z,37.05
2022-09-06T10:19:44.248Z,36.55
2022-09-06T10:22:47.432Z,36.30
2022-09-06T10:25:48.968Z,36.28
2022-09-06T10:28:44.407Z,37.03
2022-09-06T10:32:01.325Z,36.51
2022-09-06T10:35:05.816Z,36.02
2022-09-06T10:38:14.973Z,35.51
2022-09-06T10:41:26.325Z,35.43
2022-09-06T10:44:34.996Z,35.68
2022-09-06T10:47:33.596Z,36.05
2022-09-06T10:50:30.628Z,36.31
2022-09-06T10:53:38.839Z,36.00
2022-09-06T10:56:38.904Z,35.73
2022-09-06T11:02:42.678Z,35.59
2022-09-06T11:05:39.263Z,35.20
2022-09-06T11:11:43.633Z,35.31
2022-09-06T11:14:37.968Z,34.78
2022-09-06T11:17:35.359Z,35.10
2022-09-06T11:20:35.011Z,35.43
2022-09-06T11:23:42.175Z,35.10
2022-09-06T11:26:46.030Z,34.43
2022-09-06T11:29:44.054Z,34.15
2022-09-06T11:32:41.318Z,34.74
2022-09-06T11:35:33.337Z,34.14
2022-09-06T11:38:28.339Z,34.16
2022-09-06T11:41:20.697Z,34.77
2022-09-06T11:44:13.228Z,34.18
2022-09-06T11:47:07.748Z,33.82
2022-09-06T11:49:59.900Z,33.36
2022-09-06T11:53:12.942Z,33.88
2022-09-06T11:56:18.013Z,32.28
2022-09-06T11:59:33.376Z,32.62
2022-09-06T12:02:38.439Z,33.19
2022-09-06T12:05:34.457Z,33.42
2022-09-06T12:08:34.850Z,32.72
2022-09-06T12:11:43.970Z,32.77
2022-09-06T12:14:39.812Z,32.62
2022-09-06T12:17:49.019Z,33.11
2022-09-06T12:21:05.146Z,33.15
2022-09-06T12:23:57.461Z,33.26
2022-09-06T12:27:09.262Z,33.43
2022-09-06T12:30:04.578Z,32.33
2022-09-06T12:32:56.949Z,31.82
2022-09-06T12:35:56.822Z,32.10
2022-09-06T12:39:00.892Z,32.91
2022-09-06T12:41:51.472Z,32.73
2022-09-06T12:44:40.115Z,32.21
2022-09-06T12:47:24.105Z,32.35
2022-09-06T12:50:17.974Z,32.03
2022-09-06T12:53:25.093Z,32.34
2022-09-06T12:56:20.979Z,31.91
2022-09-06T12:59:19.535Z,31.89
2022-09-06T13:02:18.096Z,32.28
2022-09-06T13:05:12.537Z,31.85
2022-09-06T13:08:05.743Z,32.89
2022-09-06T13:10:59.999Z,32.98
2022-09-06T13:13:55.449Z,31.91
2022-09-06T13:16:50.887Z,32.70
2022-09-06T13:19:44.183Z,32.55
2022-09-06T13:22:48.875Z,32.27
2022-09-06T13:25:51.719Z,32.31
2022-09-06T13:28:44.195Z,31.71
2022-09-06T13:31:36.511Z,31.17
2022-09-06T13:34:31.111Z,31.78
2022-09-06T13:37:25.305Z,31.10
2022-09-06T13:44:03.409Z,31.56
2022-09-06T13:46:58.861Z,32.25
2022-09-06T13:49:52.356Z,31.48
2022-09-06T13:52:44.847Z,31.76
2022-09-06T13:55:37.177Z,32.53
2022-09-06T13:58:30.885Z,32.08
2022-09-06T14:01:23.565Z,31.95
2022-09-06T14:03:58.715Z,32.27
2022-09-06T14:06:51.515Z,32.68
2022-09-06T14:09:43.945Z,32.64
2022-09-06T14:12:36.882Z,32.57
2022-09-06T14:15:29.328Z,32.11
2022-09-06T14:18:22.017Z,32.95
2022-09-06T14:21:15.757Z,33.07
2022-09-06T14:24:08.830Z,32.33
2022-09-06T14:27:02.076Z,32.33
2022-09-06T14:29:54.443Z,32.52
2022-09-06T14:32:47.646Z,32.66
2022-09-06T14:35:41.364Z,32.27
2022-09-06T14:38:36.873Z,32.76
2022-09-06T14:41:29.660Z,32.42
2022-09-06T14:44:22.425Z,32.46
2022-09-06T14:47:14.802Z,32.57
2022-09-06T14:50:08.516Z,32.11
2022-09-06T14:53:00.877Z,32.36
2022-09-06T14:55:53.293Z,32.70
2022-09-06T14:58:46.706Z,32.72
2022-09-06T15:01:39.975Z,32.17
2022-09-06T15:04:27.659Z,31.70
2022-09-06T15:07:20.053Z,32.00
2022-09-06T15:10:12.814Z,32.47
2022-09-06T15:13:05.458Z,33.10
2022-09-06T15:15:58.013Z,33.11
2022-09-06T15:18:50.522Z,33.11
2022-09-06T15:21:43.155Z,32.69
2022-09-06T15:24:36.760Z,32.59
2022-09-06T15:27:29.590Z,33.24
2022-09-06T15:30:15.268Z,33.21
2022-09-06T15:33:10.514Z,33.34
2022-09-06T15:36:06.534Z,32.81
2022-09-06T15:39:01.137Z,33.00
2022-09-06T15:41:43.185Z,33.08
2022-09-06T15:44:17.208Z,32.73
2022-09-06T15:46:54.783Z,32.85
2022-09-06T15:49:36.450Z,33.05
2022-09-06T15:52:12.419Z,33.78
2022-09-06T15:55:02.522Z,33.78
2022-09-06T15:57:34.278Z,34.23
2022-09-06T16:00:27.093Z,34.00
2022-09-06T16:03:19.270Z,34.43
2022-09-06T16:09:05.539Z,34.88
2022-09-06T16:11:57.947Z,35.61
2022-09-06T16:14:50.227Z,36.03
2022-09-06T16:17:42.709Z,36.16
2022-09-06T16:20:37.697Z,36.17
2022-09-06T16:23:30.029Z,36.54
2022-09-06T16:26:12.518Z,37.10
2022-09-06T16:29:06.399Z,37.71
2022-09-06T16:32:00.749Z,38.13
2022-09-06T16:34:43.019Z,38.45
2022-09-06T16:37:15.735Z,38.66
2022-09-06T16:40:10.735Z,39.09
2022-09-06T16:43:03.445Z,39.33
2022-09-06T16:45:38.691Z,39.81
2022-09-06T16:48:32.077Z,40.19
2022-09-06T16:51:26.827Z,40.44
2022-09-06T16:54:19.988Z,40.73
2022-09-06T16:57:04.202Z,40.94
2022-09-06T16:59:56.606Z,41.59
2022-09-06T17:02:49.033Z,42.06
2022-09-06T17:05:43.656Z,42.48
2022-09-06T17:08:37.351Z,42.77
2022-09-06T17:11:30.700Z,43.33
2022-09-06T17:14:23.128Z,43.59
2022-09-06T17:17:18.073Z,43.68
2022-09-06T17:20:03.189Z,44.07
2022-09-06T17:22:56.370Z,44.52
2022-09-06T17:25:48.735Z,45.03
2022-09-06T17:28:41.675Z,45.28
2022-09-06T17:31:34.471Z,45.64
2022-09-06T17:34:27.317Z,45.99
2022-09-06T17:37:19.913Z,46.25
2022-09-06T17:40:13.400Z,46.77
2022-09-06T17:43:05.963Z,46.93
2022-09-06T17:45:58.753Z,47.24
2022-09-06T17:48:51.313Z,47.44
2022-09-06T17:51:44.048Z,47.92
2022-09-06T17:54:36.360Z,48.19
2022-09-06T17:57:28.922Z,48.44
2022-09-06T18:00:21.535Z,48.66
2022-09-06T18:03:13.011Z,49.00
2022-09-06T18:06:10.669Z,49.05
2022-09-06T18:09:06.405Z,48.77
2022-09-06T18:11:59.178Z,48.49
2022-09-06T18:14:44.120Z,48.23
2022-09-06T18:17:36.443Z,47.96
2022-09-06T18:20:29.916Z,47.33
2022-09-06T18:23:22.460Z,47.26
2022-09-06T18:26:08.618Z,47.05
2022-09-06T18:29:01.583Z,47.01
2022-09-06T18:31:54.760Z,46.85
2022-09-06T18:34:47.471Z,47.01
2022-09-06T18:37:43.618Z,47.10
2022-09-06T18:40:35.912Z,46.80
2022-09-06T18:43:32.332Z,46.96
2022-09-06T18:46:24.598Z,46.97
2022-09-06T18:49:18.130Z,47.21
2022-09-06T18:52:10.401Z,47.28
2022-09-06T18:54:43.890Z,47.19
2022-09-06T18:57:36.452Z,47.59
2022-09-06T19:00:29.699Z,47.75
2022-09-06T19:03:15.596Z,47.89
2022-09-06T19:06:10.293Z,48.10
2022-09-06T19:09:05.716Z,48.30
2022-09-06T19:11:57.786Z,48.44
2022-09-06T19:14:40.926Z,48.66
2022-09-06T19:17:33.046Z,48.86
2022-09-06T19:20:25.258Z,49.06
2022-09-06T19:23:17.442Z,49.35
2022-09-06T19:26:15.122Z,49.76
2022-09-06T19:29:09.036Z,49.68
2022-09-06T19:32:01.148Z,50.02
2022-09-06T19:34:53.539Z,50.19
2022-09-06T19:37:45.779Z,50.61
2022-09-06T19:40:40.516Z,50.68
2022-09-06T19:43:22.426Z,50.84
2022-09-06T19:46:14.923Z,50.95
2022-09-06T19:49:09.053Z,51.10
2022-09-06T19:52:01.698Z,51.31
2022-09-06T19:54:54.844Z,51.57
2022-09-06T19:57:47.062Z,51.67
2022-09-06T20:00:42.976Z,51.87
2022-09-06T20:03:35.961Z,52.00
2022-09-06T20:06:28.438Z,52.29
2022-09-06T20:09:20.551Z,52.38
2022-09-06T20:12:12.663Z,52.46
2022-09-06T20:15:05.207Z,52.74
2022-09-06T20:17:57.206Z,52.86
2022-09-06T20:20:54.203Z,52.76
2022-09-06T20:23:49.448Z,52.92
2022-09-06T20:26:42.773Z,53.13
2022-09-06T20:29:34.815Z,53.46
2022-09-06T20:32:19.686Z,53.49
2022-09-06T20:35:12.700Z,53.66
2022-09-06T20:37:56.198Z,53.75
2022-09-06T20:40:48.286Z,53.83
2022-09-06T20:43:42.679Z,53.80
2022-09-06T20:46:36.489Z,53.90
2022-09-06T20:49:09.347Z,54.20
2022-09-06T20:51:44.678Z,54.27
2022-09-06T20:54:16.614Z,54.40
2022-09-06T20:56:48.421Z,54.50
2022-09-06T20:59:20.199Z,54.85
2022-09-06T21:02:02.363Z,54.89
2022-09-06T21:04:34.267Z,55.09
2022-09-06T21:07:06.308Z,55.07
2022-09-06T21:09:38.289Z,55.38
2022-09-06T21:12:20.161Z,55.54
2022-09-06T21:14:52.148Z,55.73
2022-09-06T21:17:24.545Z,55.79
2022-09-06T21:19:59.015Z,55.98
2022-09-06T21:22:30.813Z,56.02
2022-09-06T21:25:13.931Z,56.15
2022-09-06T21:27:45.957Z,56.30
2022-09-06T21:30:18.932Z,56.37
2022-09-06T21:32:56.392Z,56.57
2022-09-06T21:35:28.336Z,56.75
2022-09-06T21:38:01.284Z,56.98
2022-09-06T21:40:36.159Z,56.99
2022-09-06T21:43:08.071Z,57.20
2022-09-06T21:45:41.128Z,57.30
2022-09-06T21:48:12.925Z,57.56
2022-09-06T21:50:47.757Z,57.45
2022-09-06T21:53:28.589Z,57.61
2022-09-06T21:56:03.685Z,57.65
2022-09-06T21:58:38.310Z,57.71
2022-09-06T22:01:10.988Z,57.76
2022-09-06T22:03:43.483Z,57.95
2022-09-06T22:06:18.826Z,57.97
2022-09-06T22:08:51.766Z,58.04
2022-09-06T22:11:26.210Z,58.11
2022-09-06T22:14:01.301Z,58.24
2022-09-06T22:16:35.757Z,58.53
2022-09-06T22:19:10.184Z,58.72
2022-09-06T22:21:42.506Z,58.74
2022-09-06T22:24:17.612Z,58.84
2022-09-06T22:26:51.008Z,58.94
2022-09-06T22:29:23.415Z,58.87
2022-09-06T22:32:07.546Z,59.05
2022-09-06T22:34:40.454Z,59.12
2022-09-06T22:37:13.489Z,59.19
2022-09-06T22:40:07.874Z,59.28
2022-09-06T22:42:40.341Z,59.43
2022-09-06T22:45:13.475Z,59.46
2022-09-06T22:47:46.218Z,59.59
2022-09-06T22:50:21.007Z,59.54
2022-09-06T22:52:53.277Z,59.52
2022-09-06T22:55:26.039Z,59.58
2022-09-06T22:57:58.544Z,59.78
2022-09-06T23:00:31.993Z,59.73
2022-09-06T23:03:04.831Z,59.97
2022-09-06T23:05:37.157Z,60.13
2022-09-06T23:08:19.682Z,60.08
2022-09-06T23:10:52.114Z,60.16
2022-09-06T23:13:24.374Z,60.44
2022-09-06T23:16:03.106Z,60.37
2022-09-06T23:18:37.365Z,60.46
2022-09-06T23:21:12.983Z,60.68
2022-09-06T23:23:46.148Z,60.94
2022-09-06T23:26:21.450Z,61.14
2022-09-06T23:28:56.789Z,61.33
2022-09-06T23:31:32.232Z,61.49
2022-09-06T23:34:16.226Z,61.76
2022-09-06T23:36:49.887Z,61.99
2022-09-06T23:39:22.203Z,62.08
2022-09-06T23:41:57.547Z,62.22
2022-09-06T23:44:32.900Z,62.23
2022-09-06T23:47:25.495Z,62.38
2022-09-06T23:50:18.081Z,62.60
2022-09-06T23:52:51.027Z,62.71
2022-09-06T23:55:23.387Z,62.76
2022-09-06T23:57:59.033Z,62.87
